createdAt,value
2022-12-16T00:00:16.090Z,87.30
2022-12-16T00:02:43.664Z,87.70
2022-12-16T00:05:11.263Z,87.10
2022-12-16T00:07:38.761Z,86.70
2022-12-16T00:10:06.750Z,85.80
2022-12-16T00:12:34.212Z,86.20
2022-12-16T00:15:01.658Z,86.10
2022-12-16T00:17:29.165Z,86.00
2022-12-16T00:19:56.626Z,86.60
2022-12-16T00:22:24.282Z,86.00
2022-12-16T00:24:52.649Z,86.40
2022-12-16T00:27:20.155Z,86.50
2022-12-16T00:29:47.685Z,86.50
2022-12-16T00:32:15.423Z,86.40
2022-12-16T00:34:43.001Z,85.70
2022-12-16T00:37:12.460Z,86.20
2022-12-16T00:39:39.991Z,86.40
2022-12-16T00:42:07.488Z,86.00
2022-12-16T00:44:35.535Z,85.60
2022-12-16T00:47:03.179Z,85.20
2022-12-16T00:49:30.668Z,84.60
2022-12-16T00:51:58.144Z,84.80
2022-12-16T00:54:25.711Z,84.60
2022-12-16T00:56:53.666Z,84.50
2022-12-16T00:59:21.500Z,84.50
2022-12-16T01:01:51.606Z,84.70
2022-12-16T01:04:20.127Z,84.30
2022-12-16T01:06:47.756Z,84.50
2022-12-16T01:09:15.626Z,83.90
2022-12-16T01:11:43.605Z,84.10
2022-12-16T01:14:11.145Z,84.00
2022-12-16T01:16:38.945Z,83.90
2022-12-16T01:19:06.675Z,84.30
2022-12-16T01:21:34.157Z,84.00
2022-12-16T01:24:08.534Z,83.40
2022-12-16T01:26:36.264Z,83.70
2022-12-16T01:29:03.831Z,83.60
2022-12-16T01:31:31.599Z,83.00
2022-12-16T01:33:59.921Z,83.00
2022-12-16T01:36:27.893Z,83.10
2022-12-16T01:38:56.337Z,83.30
2022-12-16T01:41:23.865Z,82.00
2022-12-16T01:43:52.207Z,81.80
2022-12-16T01:46:22.459Z,82.50
2022-12-16T01:48:58.066Z,82.10
2022-12-16T01:51:29.192Z,82.00
2022-12-16T01:53:59.623Z,81.70
2022-12-16T01:56:29.328Z,81.80
2022-12-16T01:58:57.738Z,81.60
2022-12-16T02:01:26.446Z,81.40
2022-12-16T02:03:55.033Z,80.70
2022-12-16T02:06:23.125Z,81.00
2022-12-16T02:08:54.596Z,80.80
2022-12-16T02:11:37.192Z,79.90
2022-12-16T02:14:07.592Z,80.50
2022-12-16T02:17:12.566Z,80.10
2022-12-16T02:20:01.014Z,80.40
2022-12-16T02:22:40.104Z,79.80
2022-12-16T02:25:26.531Z,79.40
2022-12-16T02:27:57.190Z,79.70
2022-12-16T02:30:35.862Z,79.60
2022-12-16T02:33:03.423Z,79.20
2022-12-16T02:35:36.524Z,79.00
2022-12-16T02:38:23.610Z,78.90
2022-12-16T02:40:51.893Z,78.60
2022-12-16T02:43:40.114Z,78.50
2022-12-16T02:46:08.019Z,78.50
2022-12-16T02:48:36.228Z,78.10
2022-12-16T02:51:04.202Z,78.00
2022-12-16T02:53:35.857Z,77.90
2022-12-16T02:56:09.863Z,77.40
2022-12-16T02:58:40.852Z,77.50
2022-12-16T03:01:08.536Z,77.20
2022-12-16T03:03:41.063Z,77.20
2022-12-16T03:06:11.317Z,77.10
2022-12-16T03:08:41.268Z,77.00
2022-12-16T03:11:08.965Z,76.40
2022-12-16T03:13:41.653Z,76.20
2022-12-16T03:16:10.633Z,76.10
2022-12-16T03:18:40.884Z,75.70
2022-12-16T03:21:10.116Z,75.00
2022-12-16T03:23:44.578Z,75.30
2022-12-16T03:26:17.220Z,74.80
2022-12-16T03:29:07.454Z,74.90
2022-12-16T03:31:41.300Z,74.70
2022-12-16T03:34:23.182Z,73.80
2022-12-16T03:36:53.973Z,73.30
2022-12-16T03:39:23.390Z,72.60
2022-12-16T03:41:51.893Z,72.70
2022-12-16T03:44:20.447Z,73.50
2022-12-16T03:46:48.527Z,73.90
2022-12-16T03:49:16.868Z,71.00
2022-12-16T03:51:45.030Z,72.10
2022-12-16T03:54:12.552Z,72.90
2022-12-16T03:56:40.159Z,72.10
2022-12-16T03:59:07.912Z,71.00
2022-12-16T04:01:35.729Z,72.30
2022-12-16T04:04:04.904Z,72.40
2022-12-16T04:06:32.777Z,71.00
2022-12-16T04:09:01.545Z,72.20
2022-12-16T04:11:47.476Z,72.00
2022-12-16T04:14:34.289Z,72.00
2022-12-16T04:17:20.067Z,72.40
2022-12-16T04:20:07.376Z,70.30
2022-12-16T04:22:54.477Z,70.70
2022-12-16T04:25:25.417Z,70.00
2022-12-16T04:27:53.236Z,67.70
2022-12-16T04:30:21.150Z,70.00
2022-12-16T04:33:15.473Z,69.40
2022-12-16T04:36:01.888Z,68.60
2022-12-16T04:38:48.926Z,69.10
2022-12-16T04:41:34.855Z,69.90
2022-12-16T04:44:21.173Z,71.10
2022-12-16T04:47:08.452Z,70.20
2022-12-16T04:49:54.607Z,69.10
2022-12-16T04:52:41.858Z,68.40
2022-12-16T04:55:28.420Z,69.20
2022-12-16T04:58:21.661Z,69.30
2022-12-16T05:01:08.552Z,69.60
2022-12-16T05:03:54.694Z,69.80
2022-12-16T05:06:40.585Z,69.20
2022-12-16T05:09:42.115Z,68.10
2022-12-16T05:12:27.864Z,69.70
2022-12-16T05:15:14.206Z,70.50
2022-12-16T05:17:59.851Z,70.20
2022-12-16T05:20:45.673Z,66.30
2022-12-16T05:23:31.424Z,66.80
2022-12-16T05:26:17.480Z,67.40
2022-12-16T05:29:05.064Z,67.70
2022-12-16T05:31:51.731Z,66.30
2022-12-16T05:34:37.792Z,67.90
2022-12-16T05:37:23.540Z,66.30
2022-12-16T05:40:09.681Z,67.40
2022-12-16T05:42:57.727Z,67.50
2022-12-16T05:45:43.481Z,66.70
2022-12-16T05:48:29.041Z,67.20
2022-12-16T05:51:15.834Z,68.30
2022-12-16T05:54:01.843Z,66.00
2022-12-16T05:56:47.839Z,66.50
2022-12-16T05:59:33.895Z,67.60
2022-12-16T06:02:19.880Z,65.00
2022-12-16T06:05:06.013Z,67.10
2022-12-16T06:07:52.764Z,66.40
2022-12-16T06:10:40.057Z,67.40
2022-12-16T06:13:29.307Z,66.50
2022-12-16T06:16:18.080Z,67.20
2022-12-16T06:19:04.521Z,64.20
2022-12-16T06:21:50.283Z,64.20
2022-12-16T06:24:37.006Z,65.20
2022-12-16T06:27:23.532Z,66.70
2022-12-16T06:30:10.221Z,63.80
2022-12-16T06:33:00.493Z,62.50
2022-12-16T06:35:46.656Z,64.50
2022-12-16T06:38:33.343Z,64.50
2022-12-16T06:41:19.681Z,65.30
2022-12-16T06:44:06.127Z,63.10
2022-12-16T06:46:52.216Z,65.00
2022-12-16T06:49:38.377Z,67.20
2022-12-16T06:52:24.572Z,65.60
2022-12-16T06:55:10.403Z,65.40
2022-12-16T06:57:57.049Z,65.10
2022-12-16T07:00:42.921Z,65.50
2022-12-16T07:03:32.791Z,64.30
2022-12-16T07:06:21.408Z,63.60
2022-12-16T07:09:08.618Z,64.50
2022-12-16T07:11:54.717Z,66.70
2022-12-16T07:14:42.394Z,66.40
2022-12-16T07:17:28.284Z,65.50
2022-12-16T07:20:15.107Z,66.00
2022-12-16T07:23:13.175Z,64.00
2022-12-16T07:26:03.424Z,62.80
2022-12-16T07:28:49.070Z,63.10
2022-12-16T07:31:35.835Z,63.20
2022-12-16T07:34:27.099Z,65.00
2022-12-16T07:37:14.026Z,63.50
2022-12-16T07:40:00.675Z,65.50
2022-12-16T07:42:47.322Z,65.40
2022-12-16T07:45:33.522Z,65.70
2022-12-16T07:48:20.237Z,65.00
2022-12-16T07:51:08.538Z,63.80
2022-12-16T07:53:54.889Z,63.10
2022-12-16T07:56:43.493Z,63.40
2022-12-16T07:59:29.366Z,64.50
2022-12-16T08:02:15.334Z,63.20
2022-12-16T08:05:01.594Z,63.70
2022-12-16T08:07:47.244Z,64.10
2022-12-16T08:10:33.429Z,64.70
2022-12-16T08:13:25.810Z,64.80
2022-12-16T08:16:12.259Z,64.90
2022-12-16T08:18:57.989Z,64.50
2022-12-16T08:21:44.539Z,64.60
2022-12-16T08:24:32.141Z,62.60
2022-12-16T08:27:18.176Z,63.30
2022-12-16T08:30:03.800Z,64.30
2022-12-16T08:32:57.197Z,63.90
2022-12-16T08:35:44.803Z,64.30
2022-12-16T08:38:34.205Z,65.30
2022-12-16T08:41:22.300Z,64.80
2022-12-16T08:44:07.940Z,63.00
2022-12-16T08:46:53.514Z,65.20
2022-12-16T08:49:43.383Z,63.90
2022-12-16T08:52:30.350Z,61.70
2022-12-16T08:55:17.050Z,62.90
2022-12-16T08:58:03.047Z,63.00
2022-12-16T09:00:49.435Z,64.10
2022-12-16T09:03:36.310Z,62.00
2022-12-16T09:06:23.590Z,62.10
2022-12-16T09:09:09.549Z,63.20
2022-12-16T09:11:55.330Z,64.50
2022-12-16T09:14:41.729Z,65.10
2022-12-16T09:17:27.833Z,63.90
2022-12-16T09:20:13.565Z,64.40
2022-12-16T09:22:59.598Z,64.20
2022-12-16T09:25:46.445Z,62.50
2022-12-16T09:28:32.163Z,62.10
2022-12-16T09:31:18.385Z,63.30
2022-12-16T09:34:04.936Z,62.10
2022-12-16T09:36:51.135Z,62.20
2022-12-16T09:39:37.295Z,63.20
2022-12-16T09:42:41.076Z,62.10
2022-12-16T09:45:27.690Z,62.50
2022-12-16T09:48:25.890Z,63.20
2022-12-16T09:51:16.489Z,63.30
2022-12-16T09:54:03.912Z,62.50
2022-12-16T09:56:51.835Z,62.70
2022-12-16T10:02:33.123Z,63.00
2022-12-16T10:05:20.865Z,63.60
2022-12-16T10:08:23.641Z,63.10
2022-12-16T10:11:12.458Z,62.50
2022-12-16T10:14:07.329Z,63.10
2022-12-16T10:17:14.026Z,63.50
2022-12-16T10:20:09.920Z,63.40
2022-12-16T10:22:58.522Z,63.90
2022-12-16T10:26:07.071Z,64.10
2022-12-16T10:29:06.403Z,64.30
2022-12-16T10:31:52.774Z,64.60
2022-12-16T10:34:43.513Z,64.60
2022-12-16T10:37:43.275Z,64.80
2022-12-16T10:40:32.852Z,65.30
2022-12-16T10:43:23.207Z,65.60
2022-12-16T10:46:11.194Z,65.80
2022-12-16T10:48:57.958Z,66.10
2022-12-16T10:51:46.791Z,66.30
2022-12-16T10:54:32.651Z,66.60
2022-12-16T10:57:32.233Z,66.80
2022-12-16T11:00:33.822Z,67.10
2022-12-16T11:03:38.996Z,67.20
2022-12-16T11:06:25.357Z,67.40
2022-12-16T11:09:11.252Z,67.60
2022-12-16T11:11:57.036Z,67.90
2022-12-16T11:15:05.819Z,68.10
2022-12-16T11:17:52.750Z,68.10
2022-12-16T11:20:40.272Z,68.30
2022-12-16T11:23:33.581Z,68.50
2022-12-16T11:26:38.758Z,68.80
2022-12-16T11:29:27.941Z,69.10
2022-12-16T11:32:16.493Z,69.20
2022-12-16T11:35:03.655Z,69.60
2022-12-16T11:37:50.749Z,69.70
2022-12-16T11:40:37.798Z,70.00
2022-12-16T11:43:24.083Z,70.10
2022-12-16T11:46:11.167Z,70.10
2022-12-16T11:48:59.628Z,70.40
2022-12-16T11:51:46.518Z,70.60
2022-12-16T11:54:36.914Z,70.70
2022-12-16T11:57:24.726Z,70.60
2022-12-16T12:00:19.831Z,70.70
2022-12-16T12:03:14.224Z,70.60
2022-12-16T12:06:12.771Z,70.40
2022-12-16T12:09:18.061Z,70.30
2022-12-16T12:12:14.940Z,70.30
2022-12-16T12:15:23.223Z,70.30
2022-12-16T12:18:11.818Z,70.10
2022-12-16T12:21:03.786Z,70.10
2022-12-16T12:23:50.344Z,70.00
2022-12-16T12:26:39.893Z,70.00
2022-12-16T12:29:38.061Z,70.00
2022-12-16T12:32:42.451Z,70.00
2022-12-16T12:35:36.971Z,69.90
2022-12-16T12:38:34.425Z,69.90
2022-12-16T12:41:33.399Z,69.90
2022-12-16T12:44:48.641Z,69.80
2022-12-16T12:47:44.373Z,69.90
2022-12-16T12:50:40.950Z,69.90
2022-12-16T12:53:41.586Z,69.90
2022-12-16T12:56:46.278Z,70.00
2022-12-16T12:59:38.682Z,70.20
2022-12-16T13:02:25.656Z,70.20
2022-12-16T13:05:12.413Z,70.30
2022-12-16T13:07:59.020Z,70.30
2022-12-16T13:10:45.508Z,70.40
2022-12-16T13:13:34.901Z,70.40
2022-12-16T13:16:23.584Z,70.40
2022-12-16T13:19:30.522Z,70.50
2022-12-16T13:22:17.134Z,70.40
2022-12-16T13:25:09.988Z,70.60
2022-12-16T13:28:07.700Z,70.70
2022-12-16T13:30:56.059Z,70.70
2022-12-16T13:33:43.468Z,70.70
2022-12-16T13:36:31.244Z,70.80
2022-12-16T13:39:19.324Z,70.90
2022-12-16T13:42:07.318Z,71.00
2022-12-16T13:44:55.853Z,71.00
2022-12-16T13:48:13.765Z,71.20
2022-12-16T13:50:59.565Z,71.40
2022-12-16T13:53:50.487Z,71.50
2022-12-16T13:56:49.610Z,71.70
2022-12-16T13:59:45.868Z,71.70
2022-12-16T14:02:38.789Z,71.80
2022-12-16T14:05:33.383Z,72.00
2022-12-16T14:08:20.052Z,72.20
2022-12-16T14:11:12.173Z,72.30
2022-12-16T14:14:05.303Z,72.60
2022-12-16T14:17:10.142Z,72.80
2022-12-16T14:20:14.504Z,73.60
2022-12-16T14:23:47.218Z,73.90
2022-12-16T14:26:29.528Z,73.90
2022-12-16T14:29:15.163Z,73.50
2022-12-16T14:32:02.775Z,74.20
2022-12-16T14:35:05.938Z,73.90
2022-12-16T14:37:56.258Z,73.80
2022-12-16T14:40:43.644Z,73.90
2022-12-16T14:43:34.324Z,73.80
2022-12-16T14:46:20.520Z,73.70
2022-12-16T14:49:07.332Z,74.60
2022-12-16T14:51:54.480Z,74.20
2022-12-16T14:54:44.884Z,74.50
2022-12-16T14:57:39.295Z,74.40
2022-12-16T15:00:27.826Z,74.40
2022-12-16T15:03:15.581Z,74.70
2022-12-16T15:06:02.884Z,74.90
2022-12-16T15:08:51.059Z,74.60
2022-12-16T15:11:38.421Z,74.70
2022-12-16T15:14:25.276Z,74.60
2022-12-16T15:17:12.418Z,74.50
2022-12-16T15:20:03.883Z,74.70
2022-12-16T15:22:50.086Z,75.80
2022-12-16T15:25:38.248Z,75.30
2022-12-16T15:28:23.778Z,75.30
2022-12-16T15:31:17.550Z,75.30
2022-12-16T15:34:03.472Z,74.90
2022-12-16T15:36:50.786Z,74.80
2022-12-16T15:39:45.138Z,74.90
2022-12-16T15:42:38.991Z,74.90
2022-12-16T15:45:34.607Z,74.90
2022-12-16T15:48:26.581Z,74.90
2022-12-16T15:51:12.698Z,74.70
2022-12-16T15:53:58.622Z,75.10
2022-12-16T15:57:00.709Z,74.70
2022-12-16T15:59:48.332Z,74.40
2022-12-16T16:02:36.315Z,74.50
2022-12-16T16:05:29.056Z,74.70
2022-12-16T16:08:14.582Z,74.50
2022-12-16T16:11:01.713Z,74.20
2022-12-16T16:13:47.455Z,74.30
2022-12-16T16:16:33.815Z,74.30
2022-12-16T16:19:19.668Z,74.20
2022-12-16T16:22:06.305Z,74.30
2022-12-16T16:24:52.126Z,74.30
2022-12-16T16:27:39.236Z,74.60
2022-12-16T16:30:25.608Z,74.50
2022-12-16T16:33:11.232Z,74.40
2022-12-16T16:35:57.190Z,74.80
2022-12-16T16:38:43.386Z,74.80
2022-12-16T16:41:32.148Z,74.80
2022-12-16T16:44:19.774Z,74.50
2022-12-16T16:47:06.074Z,74.80
2022-12-16T16:50:02.637Z,74.90
2022-12-16T16:52:48.872Z,75.50
2022-12-16T16:55:34.392Z,75.10
2022-12-16T16:58:23.615Z,75.30
2022-12-16T17:01:09.722Z,75.40
2022-12-16T17:03:55.868Z,75.50
2022-12-16T17:06:41.870Z,76.50
2022-12-16T17:09:28.429Z,76.80
2022-12-16T17:12:14.337Z,76.30
2022-12-16T17:15:00.135Z,76.80
2022-12-16T17:17:46.390Z,76.00
2022-12-16T17:20:35.563Z,76.30
2022-12-16T17:23:22.066Z,77.20
2022-12-16T17:26:07.423Z,76.90
2022-12-16T17:28:54.683Z,76.70
2022-12-16T17:31:40.664Z,77.30
2022-12-16T17:34:27.470Z,78.00
2022-12-16T17:37:13.420Z,78.50
2022-12-16T17:39:59.421Z,78.90
2022-12-16T17:42:46.803Z,79.60
2022-12-16T17:45:32.827Z,79.30
2022-12-16T17:48:18.786Z,80.00
2022-12-16T17:51:04.656Z,80.10
2022-12-16T17:53:52.552Z,80.20
2022-12-16T17:56:55.468Z,81.00
2022-12-16T17:59:41.335Z,81.30
2022-12-16T18:02:31.741Z,81.40
2022-12-16T18:05:41.128Z,81.60
2022-12-16T18:08:28.599Z,81.10
2022-12-16T18:11:17.565Z,81.70
2022-12-16T18:14:03.403Z,80.20
2022-12-16T18:16:49.861Z,81.20
2022-12-16T18:19:35.735Z,81.10
2022-12-16T18:22:21.563Z,82.00
2022-12-16T18:25:07.581Z,81.70
2022-12-16T18:27:55.762Z,81.50
2022-12-16T18:30:41.440Z,81.70
2022-12-16T18:33:27.404Z,82.60
2022-12-16T18:36:13.996Z,81.90
2022-12-16T18:38:59.868Z,82.10
2022-12-16T18:41:46.033Z,81.70
2022-12-16T18:44:32.472Z,82.70
2022-12-16T18:47:18.216Z,83.20
2022-12-16T18:50:04.137Z,83.90
2022-12-16T18:52:49.851Z,84.00
2022-12-16T18:55:35.707Z,84.00
2022-12-16T18:58:49.721Z,83.50
2022-12-16T19:01:28.416Z,82.30
2022-12-16T19:04:14.951Z,82.90
2022-12-16T19:07:01.069Z,83.70
2022-12-16T19:09:46.918Z,83.90
2022-12-16T19:12:32.573Z,83.40
2022-12-16T19:15:18.232Z,83.30
2022-12-16T19:18:04.132Z,83.10
2022-12-16T19:20:49.953Z,83.60
2022-12-16T19:23:36.089Z,83.90
2022-12-16T19:26:22.600Z,83.80
2022-12-16T19:29:08.331Z,83.90
2022-12-16T19:31:56.084Z,82.60
2022-12-16T19:34:42.535Z,84.10
2022-12-16T19:37:28.289Z,83.80
2022-12-16T19:40:14.168Z,82.90
2022-12-16T19:43:00.007Z,83.30
2022-12-16T19:45:45.857Z,83.90
2022-12-16T19:48:31.628Z,84.60
2022-12-16T19:51:18.439Z,83.80
2022-12-16T19:54:04.089Z,83.10
2022-12-16T19:56:50.001Z,83.40
2022-12-16T19:59:36.347Z,83.40
2022-12-16T20:02:22.602Z,83.80
2022-12-16T20:05:08.295Z,83.70
2022-12-16T20:07:56.356Z,85.20
2022-12-16T20:10:42.307Z,84.60
2022-12-16T20:13:30.292Z,84.20
2022-12-16T20:16:23.048Z,83.50
2022-12-16T20:19:09.760Z,84.80
2022-12-16T20:21:56.696Z,84.50
2022-12-16T20:24:43.745Z,84.50
2022-12-16T20:27:29.578Z,85.50
2022-12-16T20:30:16.640Z,84.30
2022-12-16T20:33:04.972Z,84.80
2022-12-16T20:35:51.907Z,84.40
2022-12-16T20:38:37.583Z,84.10
2022-12-16T20:41:23.391Z,85.30
2022-12-16T20:44:09.417Z,86.00
2022-12-16T20:46:56.721Z,86.30
2022-12-16T20:49:42.241Z,85.10
2022-12-16T20:52:28.281Z,84.80
2022-12-16T20:55:14.101Z,84.60
2022-12-16T20:58:00.106Z,84.60
2022-12-16T21:00:46.082Z,84.70
2022-12-16T21:03:31.964Z,85.00
2022-12-16T21:06:17.497Z,85.10
2022-12-16T21:09:03.315Z,84.50
2022-12-16T21:11:48.846Z,84.70
2022-12-16T21:14:34.895Z,85.10
2022-12-16T21:17:20.828Z,84.50
2022-12-16T21:20:06.762Z,83.50
2022-12-16T21:22:52.439Z,83.10
2022-12-16T21:25:38.976Z,83.60
2022-12-16T21:28:24.592Z,83.80
2022-12-16T21:31:10.125Z,83.60
2022-12-16T21:33:55.906Z,83.60
2022-12-16T21:36:41.522Z,84.50
2022-12-16T21:39:27.371Z,83.90
2022-12-16T21:42:35.506Z,84.90
2022-12-16T21:45:39.945Z,85.10
2022-12-16T21:48:26.667Z,85.10
2022-12-16T21:51:12.427Z,83.80
2022-12-16T21:54:02.225Z,83.60
2022-12-16T21:56:52.497Z,83.20
2022-12-16T21:59:42.722Z,82.60
2022-12-16T22:02:32.475Z,82.90
2022-12-16T22:05:18.352Z,84.60
2022-12-16T22:08:04.423Z,83.10
2022-12-16T22:10:50.104Z,82.90
2022-12-16T22:13:36.952Z,82.80
2022-12-16T22:16:23.241Z,83.10
2022-12-16T22:19:12.211Z,84.10
2022-12-16T22:21:57.892Z,84.30
2022-12-16T22:24:43.381Z,84.40
2022-12-16T22:27:29.043Z,84.30
2022-12-16T22:30:14.883Z,84.50
2022-12-16T22:33:01.248Z,83.80
2022-12-16T22:35:47.280Z,84.60
2022-12-16T22:38:33.125Z,85.20
2022-12-16T22:41:19.984Z,85.10
2022-12-16T22:44:05.931Z,86.00
2022-12-16T22:46:52.603Z,84.80
2022-12-16T22:49:42.077Z,85.60
2022-12-16T22:52:29.016Z,85.10
2022-12-16T22:55:14.688Z,84.60
2022-12-16T22:58:00.557Z,86.30
2022-12-16T23:00:46.396Z,85.90
2022-12-16T23:03:37.919Z,85.10
2022-12-16T23:06:24.836Z,85.10
2022-12-16T23:09:10.488Z,85.00
2022-12-16T23:11:56.963Z,85.10
2022-12-16T23:14:44.126Z,85.10
2022-12-16T23:17:30.264Z,85.00
2022-12-16T23:20:16.037Z,84.40
2022-12-16T23:23:01.923Z,85.70
2022-12-16T23:25:47.650Z,86.30
2022-12-16T23:28:33.470Z,86.10
2022-12-16T23:31:19.368Z,86.90
2022-12-16T23:34:05.222Z,86.00
2022-12-16T23:36:50.877Z,84.70
2022-12-16T23:39:39.004Z,85.00
2022-12-16T23:42:24.831Z,86.00
2022-12-16T23:45:10.893Z,87.10
2022-12-16T23:47:57.894Z,87.10
2022-12-16T23:50:43.621Z,86.30
2022-12-16T23:53:29.536Z,86.00
2022-12-16T23:56:16.999Z,85.90
2022-12-16T23:59:02.663Z,85.60
